createdAt,value
2018-05-12T00:00:13.329Z,22.20
2018-05-12T00:02:39.532Z,22.10
2018-05-12T00:05:05.721Z,22.00
2018-05-12T00:07:31.908Z,21.90
2018-05-12T00:09:58.128Z,21.90
2018-05-12T00:12:24.326Z,21.90
2018-05-12T00:14:50.533Z,21.90
2018-05-12T00:17:16.743Z,21.70
2018-05-12T00:19:42.918Z,21.50
2018-05-12T00:22:09.853Z,21.50
2018-05-12T00:24:36.091Z,21.50
2018-05-12T00:27:02.313Z,21.50
2018-05-12T00:29:28.500Z,21.40
2018-05-12T00:31:54.680Z,21.40
2018-05-12T00:34:20.847Z,21.30
2018-05-12T00:36:47.040Z,21.30
2018-05-12T00:39:13.204Z,19.50
2018-05-12T00:41:39.424Z,21.20
2018-05-12T00:44:05.699Z,21.10
2018-05-12T00:46:31.900Z,21.20
2018-05-12T00:48:58.960Z,21.10
2018-05-12T00:51:25.943Z,21.00
2018-05-12T00:53:52.131Z,21.00
2018-05-12T00:56:18.341Z,20.90
2018-05-12T00:58:44.562Z,20.90
2018-05-12T01:01:10.730Z,20.80
2018-05-12T01:03:38.414Z,20.80
2018-05-12T01:06:04.596Z,20.70
2018-05-12T01:08:30.798Z,20.70
2018-05-12T01:10:56.987Z,19.10
2018-05-12T01:13:23.163Z,20.60
2018-05-12T01:15:49.362Z,20.60
2018-05-12T01:18:15.535Z,20.60
2018-05-12T01:20:41.786Z,20.50
2018-05-12T01:23:07.974Z,20.50
2018-05-12T01:25:34.174Z,20.50
2018-05-12T01:28:00.378Z,20.30
2018-05-12T01:30:26.619Z,20.40
2018-05-12T01:35:46.063Z,20.30
2018-05-12T01:38:12.246Z,20.30
2018-05-12T01:40:38.416Z,20.20
2018-05-12T01:43:05.323Z,20.20
2018-05-12T01:45:31.505Z,20.10
2018-05-12T01:47:58.467Z,20.20
2018-05-12T01:50:25.004Z,20.10
2018-05-12T01:52:51.259Z,20.20
2018-05-12T01:55:17.465Z,20.10
2018-05-12T01:57:43.658Z,20.10
2018-05-12T02:00:09.890Z,20.10
2018-05-12T02:02:36.144Z,20.10
2018-05-12T02:05:02.312Z,20.10
2018-05-12T02:07:28.506Z,20.10
2018-05-12T02:09:54.707Z,20.10
2018-05-12T02:12:20.882Z,19.90
2018-05-12T02:14:47.797Z,20.00
2018-05-12T02:17:13.954Z,20.00
2018-05-12T02:19:40.139Z,20.00
2018-05-12T02:22:06.322Z,19.80
2018-05-12T02:24:32.520Z,19.90
2018-05-12T02:26:58.751Z,19.90
2018-05-12T02:29:25.057Z,19.80
2018-05-12T02:31:51.217Z,19.70
2018-05-12T02:34:17.412Z,19.80
2018-05-12T02:36:44.328Z,19.70
2018-05-12T02:39:10.484Z,19.70
2018-05-12T02:41:37.412Z,19.70
2018-05-12T02:44:03.592Z,19.70
2018-05-12T02:46:29.853Z,19.60
2018-05-12T02:48:56.010Z,19.50
2018-05-12T02:51:22.201Z,18.00
2018-05-12T02:53:48.377Z,19.60
2018-05-12T02:56:14.624Z,19.70
2018-05-12T02:58:40.774Z,19.60
2018-05-12T03:01:07.718Z,19.60
2018-05-12T03:03:34.639Z,19.60
2018-05-12T03:06:01.616Z,19.50
2018-05-12T03:08:27.783Z,19.50
2018-05-12T03:10:53.989Z,19.50
2018-05-12T03:13:20.183Z,19.50
2018-05-12T03:15:46.415Z,19.50
2018-05-12T03:18:12.646Z,19.40
2018-05-12T03:20:38.826Z,19.30
2018-05-12T03:23:05.039Z,19.40
2018-05-12T03:25:31.235Z,19.40
2018-05-12T03:27:57.381Z,19.30
2018-05-12T03:30:23.583Z,19.30
2018-05-12T03:32:49.779Z,19.30
2018-05-12T03:35:15.958Z,19.20
2018-05-12T03:37:42.155Z,19.20
2018-05-12T03:40:08.310Z,19.20
2018-05-12T03:42:34.471Z,19.20
2018-05-12T03:45:00.642Z,19.30
2018-05-12T03:47:26.787Z,19.20
2018-05-12T03:49:53.686Z,19.20
2018-05-12T03:52:19.839Z,19.10
2018-05-12T03:54:45.994Z,19.20
2018-05-12T03:57:12.155Z,19.10
2018-05-12T03:59:38.316Z,19.10
2018-05-12T04:02:04.483Z,19.20
2018-05-12T04:04:49.170Z,19.10
2018-05-12T04:07:33.706Z,19.10
2018-05-12T04:10:18.268Z,19.10
2018-05-12T04:12:44.456Z,19.00
2018-05-12T04:15:10.619Z,19.00
2018-05-12T04:17:37.105Z,18.90
2018-05-12T04:20:03.318Z,19.00
2018-05-12T04:22:29.515Z,17.10
2018-05-12T04:24:55.710Z,19.00
2018-05-12T04:27:21.891Z,19.00
2018-05-12T04:29:48.060Z,19.00
2018-05-12T04:32:14.210Z,17.60
2018-05-12T04:34:40.419Z,19.00
2018-05-12T04:37:06.571Z,19.00
2018-05-12T04:39:32.744Z,19.00
2018-05-12T04:41:58.941Z,19.10
2018-05-12T04:44:25.141Z,19.10
2018-05-12T04:46:51.313Z,19.20
2018-05-12T04:49:17.486Z,17.40
2018-05-12T04:51:43.687Z,19.20
2018-05-12T04:54:09.865Z,19.30
2018-05-12T04:56:36.022Z,19.30
2018-05-12T04:59:02.243Z,19.40
2018-05-12T05:01:28.418Z,19.30
2018-05-12T05:03:55.242Z,19.50
2018-05-12T05:06:21.721Z,18.80
2018-05-12T05:08:47.984Z,19.50
2018-05-12T05:11:14.180Z,18.00
2018-05-12T05:13:40.400Z,19.50
2018-05-12T05:16:07.344Z,19.60
2018-05-12T05:18:34.401Z,19.70
2018-05-12T05:21:01.359Z,19.80
2018-05-12T05:23:27.522Z,19.80
2018-05-12T05:25:53.895Z,19.90
2018-05-12T05:28:20.144Z,20.00
2018-05-12T05:30:46.334Z,18.30
2018-05-12T05:33:13.291Z,20.30
2018-05-12T05:35:39.464Z,20.20
2018-05-12T05:38:05.702Z,20.40
2018-05-12T05:40:31.912Z,20.40
2018-05-12T05:42:58.172Z,20.40
2018-05-12T05:45:24.412Z,20.50
2018-05-12T05:47:50.735Z,20.70
2018-05-12T05:50:17.775Z,20.90
2018-05-12T05:52:43.861Z,20.90
2018-05-12T05:55:10.784Z,21.10
2018-05-12T05:57:37.011Z,21.10
2018-05-12T06:00:04.043Z,21.30
2018-05-12T06:02:30.289Z,21.30
2018-05-12T06:04:56.623Z,21.40
2018-05-12T06:07:23.556Z,21.70
2018-05-12T06:09:49.794Z,21.70
2018-05-12T06:12:16.005Z,21.90
2018-05-12T06:14:42.286Z,22.00
2018-05-12T06:17:09.230Z,22.40
2018-05-12T06:19:35.402Z,22.30
2018-05-12T06:22:02.406Z,22.60
2018-05-12T06:24:28.792Z,22.60
2018-05-12T06:26:55.036Z,22.90
2018-05-12T06:29:21.222Z,22.90
2018-05-12T06:31:47.390Z,22.20
2018-05-12T06:34:13.580Z,23.40
2018-05-12T06:36:39.775Z,23.50
2018-05-12T06:39:06.023Z,23.70
2018-05-12T06:41:32.196Z,23.90
2018-05-12T06:43:58.369Z,24.00
2018-05-12T06:46:24.538Z,24.20
2018-05-12T06:48:50.779Z,24.40
2018-05-12T06:51:16.951Z,24.60
2018-05-12T06:53:43.106Z,24.70
2018-05-12T06:56:09.994Z,25.00
2018-05-12T06:58:36.182Z,25.00
2018-05-12T07:01:03.112Z,25.30
2018-05-12T07:03:29.279Z,24.10
2018-05-12T07:05:55.462Z,25.40
2018-05-12T07:08:21.720Z,25.60
2018-05-12T07:10:48.605Z,25.90
2018-05-12T07:13:14.777Z,25.90
2018-05-12T07:15:40.935Z,24.60
2018-05-12T07:18:07.906Z,26.10
2018-05-12T07:20:34.083Z,26.20
2018-05-12T07:23:00.255Z,26.40
2018-05-12T07:25:27.165Z,26.50
2018-05-12T07:27:53.335Z,26.50
2018-05-12T07:30:19.527Z,26.60
2018-05-12T07:32:45.694Z,25.10
2018-05-12T07:35:11.867Z,26.70
2018-05-12T07:37:38.048Z,26.80
2018-05-12T07:40:04.243Z,26.90
2018-05-12T07:42:30.419Z,27.20
2018-05-12T07:44:56.590Z,27.40
2018-05-12T07:47:22.782Z,27.80
2018-05-12T07:49:48.989Z,28.20
2018-05-12T07:52:15.170Z,28.50
2018-05-12T07:54:41.344Z,28.70
2018-05-12T07:57:07.540Z,29.10
2018-05-12T07:59:33.730Z,29.30
2018-05-12T08:02:01.424Z,29.70
2018-05-12T08:04:27.656Z,29.70
2018-05-12T08:06:54.566Z,29.80
2018-05-12T08:09:20.733Z,29.80
2018-05-12T08:11:46.952Z,29.90
2018-05-12T08:14:13.130Z,30.00
2018-05-12T08:16:39.339Z,30.10
2018-05-12T08:19:06.331Z,30.30
2018-05-12T08:21:32.531Z,30.20
2018-05-12T08:23:58.737Z,30.40
2018-05-12T08:26:24.933Z,30.60
2018-05-12T08:28:51.139Z,30.80
2018-05-12T08:31:17.327Z,31.10
2018-05-12T08:33:43.530Z,31.50
2018-05-12T08:36:09.769Z,31.70
2018-05-12T08:38:36.863Z,31.80
2018-05-12T08:41:03.024Z,32.00
2018-05-12T08:43:29.203Z,32.10
2018-05-12T08:45:55.402Z,32.30
2018-05-12T08:48:21.671Z,32.10
2018-05-12T08:50:47.820Z,32.00
2018-05-12T08:53:14.005Z,32.10
2018-05-12T08:55:40.229Z,32.30
2018-05-12T08:58:06.391Z,32.40
2018-05-12T09:00:32.574Z,32.50
2018-05-12T09:02:58.754Z,32.60
2018-05-12T09:05:24.956Z,31.50
2018-05-12T09:07:51.132Z,31.40
2018-05-12T09:10:17.317Z,32.70
2018-05-12T09:12:43.495Z,32.70
2018-05-12T09:15:09.728Z,32.60
2018-05-12T09:17:35.920Z,32.90
2018-05-12T09:20:02.132Z,32.80
2018-05-12T09:22:28.328Z,31.00
2018-05-12T09:24:54.484Z,32.60
2018-05-12T09:27:20.638Z,32.50
2018-05-12T09:29:46.808Z,32.30
2018-05-12T09:32:12.991Z,32.40
2018-05-12T09:34:39.910Z,32.60
2018-05-12T09:37:06.098Z,32.50
2018-05-12T09:39:32.295Z,32.70
2018-05-12T09:41:58.468Z,33.00
2018-05-12T09:44:24.681Z,33.40
2018-05-12T09:46:51.076Z,33.70
2018-05-12T09:49:17.240Z,33.80
2018-05-12T09:51:43.446Z,34.00
2018-05-12T09:54:09.666Z,34.40
2018-05-12T09:56:35.879Z,34.60
2018-05-12T09:59:02.101Z,34.70
2018-05-12T10:01:28.294Z,34.70
2018-05-12T10:03:54.487Z,34.90
2018-05-12T10:06:20.706Z,35.00
2018-05-12T10:08:46.898Z,35.10
2018-05-12T10:11:13.090Z,35.00
2018-05-12T10:13:39.261Z,35.10
2018-05-12T10:16:05.443Z,35.30
2018-05-12T10:18:31.649Z,35.40
2018-05-12T10:20:58.611Z,35.50
2018-05-12T10:23:24.886Z,35.40
2018-05-12T10:25:51.142Z,35.20
2018-05-12T10:28:17.387Z,35.20
2018-05-12T10:30:44.388Z,35.20
2018-05-12T10:33:10.625Z,35.20
2018-05-12T10:35:36.802Z,35.40
2018-05-12T10:38:03.054Z,35.30
2018-05-12T10:40:29.251Z,33.80
2018-05-12T10:42:55.477Z,35.10
2018-05-12T10:45:21.813Z,35.10
2018-05-12T10:47:47.916Z,35.10
2018-05-12T10:50:14.075Z,35.10
2018-05-12T10:52:40.244Z,35.20
2018-05-12T10:55:06.434Z,35.40
2018-05-12T10:57:32.609Z,34.00
2018-05-12T10:59:58.792Z,35.10
2018-05-12T11:02:25.732Z,35.10
2018-05-12T11:04:51.894Z,35.10
2018-05-12T11:07:18.065Z,35.30
2018-05-12T11:09:44.277Z,35.30
2018-05-12T11:12:10.443Z,35.50
2018-05-12T11:14:36.663Z,35.30
2018-05-12T11:17:03.601Z,35.60
2018-05-12T11:19:29.829Z,35.60
2018-05-12T11:21:56.027Z,35.60
2018-05-12T11:24:22.185Z,34.70
2018-05-12T11:26:48.379Z,35.60
2018-05-12T11:29:14.588Z,35.60
2018-05-12T11:31:41.504Z,36.10
2018-05-12T11:34:07.676Z,36.00
2018-05-12T11:36:33.850Z,36.10
2018-05-12T11:39:00.037Z,35.90
2018-05-12T11:41:26.218Z,35.70
2018-05-12T11:43:52.366Z,35.70
2018-05-12T11:46:18.505Z,35.50
2018-05-12T11:48:44.671Z,35.40
2018-05-12T11:51:11.563Z,35.20
2018-05-12T11:53:37.748Z,35.30
2018-05-12T11:56:03.950Z,35.30
2018-05-12T11:58:30.133Z,35.60
2018-05-12T12:00:56.303Z,35.70
2018-05-12T12:03:22.462Z,36.00
2018-05-12T12:05:48.631Z,36.20
2018-05-12T12:08:14.842Z,36.50
2018-05-12T12:10:41.114Z,36.80
2018-05-12T12:13:07.287Z,37.30
2018-05-12T12:15:33.446Z,37.70
2018-05-12T12:17:59.660Z,38.10
2018-05-12T12:20:25.920Z,38.30
2018-05-12T12:22:52.191Z,38.50
2018-05-12T12:25:18.387Z,38.70
2018-05-12T12:27:44.560Z,39.10
2018-05-12T12:30:10.764Z,39.40
2018-05-12T12:32:36.942Z,39.60
2018-05-12T12:35:03.107Z,39.70
2018-05-12T12:37:29.360Z,40.10
2018-05-12T12:39:55.568Z,40.20
2018-05-12T12:42:22.492Z,40.30
2018-05-12T12:44:48.727Z,40.30
2018-05-12T12:47:14.943Z,40.40
2018-05-12T12:49:41.187Z,40.50
2018-05-12T12:52:07.387Z,39.00
2018-05-12T12:54:33.634Z,40.60
2018-05-12T12:56:59.790Z,40.30
2018-05-12T12:59:26.067Z,40.10
2018-05-12T13:06:27.083Z,40.30
2018-05-12T13:08:53.242Z,40.20
2018-05-12T13:11:19.414Z,40.50
2018-05-12T13:13:45.650Z,40.70
2018-05-12T13:16:11.847Z,40.40
2018-05-12T13:18:38.075Z,40.00
2018-05-12T13:21:04.315Z,40.40
2018-05-12T13:23:30.486Z,40.50
2018-05-12T13:25:56.716Z,40.60
2018-05-12T13:28:23.637Z,40.50
2018-05-12T13:30:49.905Z,40.50
2018-05-12T13:33:16.160Z,40.60
2018-05-12T13:35:42.395Z,40.90
2018-05-12T13:38:08.679Z,40.50
2018-05-12T13:40:35.020Z,41.20
2018-05-12T13:43:01.238Z,39.70
2018-05-12T13:45:27.434Z,41.00
2018-05-12T13:47:53.601Z,40.90
2018-05-12T13:50:19.746Z,40.80
2018-05-12T13:52:45.974Z,40.90
2018-05-12T13:55:12.209Z,40.70
2018-05-12T13:57:38.455Z,40.70
2018-05-12T14:00:04.685Z,40.80
2018-05-12T14:02:30.866Z,40.60
2018-05-12T14:04:57.035Z,40.60
2018-05-12T14:07:23.305Z,40.20
2018-05-12T14:09:49.399Z,40.10
2018-05-12T14:12:15.558Z,40.30
2018-05-12T14:14:41.823Z,40.30
2018-05-12T14:17:08.003Z,38.70
2018-05-12T14:19:34.194Z,39.80
2018-05-12T14:22:00.366Z,39.80
2018-05-12T14:24:26.535Z,39.60
2018-05-12T14:26:52.761Z,39.70
2018-05-12T14:29:19.946Z,39.90
2018-05-12T14:31:46.099Z,39.80
2018-05-12T14:34:12.333Z,39.80
2018-05-12T14:36:38.521Z,39.80
2018-05-12T14:39:04.778Z,39.50
2018-05-12T14:41:30.941Z,39.30
2018-05-12T14:43:57.133Z,39.40
2018-05-12T14:46:23.283Z,39.30
2018-05-12T14:48:49.488Z,39.10
2018-05-12T14:51:15.654Z,39.10
2018-05-12T14:53:41.854Z,39.40
2018-05-12T14:56:08.792Z,39.80
2018-05-12T14:58:34.975Z,39.70
2018-05-12T15:01:01.142Z,39.80
2018-05-12T15:03:27.322Z,39.80
2018-05-12T15:05:53.499Z,39.80
2018-05-12T15:08:19.766Z,39.50
2018-05-12T15:10:45.907Z,39.50
2018-05-12T15:13:12.085Z,39.70
2018-05-12T15:15:38.272Z,39.60
2018-05-12T15:18:05.195Z,39.80
2018-05-12T15:20:31.423Z,39.70
2018-05-12T15:22:57.593Z,38.40
2018-05-12T15:25:24.484Z,39.60
2018-05-12T15:27:50.663Z,39.60
2018-05-12T15:30:17.283Z,39.40
2018-05-12T15:32:44.208Z,39.10
2018-05-12T15:35:10.447Z,39.00
2018-05-12T15:37:36.626Z,38.70
2018-05-12T15:40:02.807Z,38.70
2018-05-12T15:42:30.245Z,38.50
2018-05-12T15:44:56.417Z,38.50
2018-05-12T15:47:22.620Z,38.60
2018-05-12T15:49:48.881Z,37.40
2018-05-12T15:52:15.004Z,38.30
2018-05-12T15:54:44.451Z,38.10
2018-05-12T15:57:10.639Z,36.80
2018-05-12T15:59:36.882Z,38.20
2018-05-12T16:02:03.079Z,38.00
2018-05-12T16:04:29.243Z,38.00
2018-05-12T16:06:55.443Z,37.90
2018-05-12T16:09:21.640Z,38.20
2018-05-12T16:11:47.807Z,36.80
2018-05-12T16:14:13.980Z,38.30
2018-05-12T16:16:40.239Z,38.20
2018-05-12T16:19:06.423Z,38.40
2018-05-12T16:21:32.622Z,38.50
2018-05-12T16:23:58.811Z,38.40
2018-05-12T16:26:25.029Z,38.20
2018-05-12T16:28:51.200Z,38.30
2018-05-12T16:31:17.452Z,38.30
2018-05-12T16:33:43.562Z,38.20
2018-05-12T16:36:09.787Z,38.10
2018-05-12T16:38:35.973Z,37.70
2018-05-12T16:41:02.145Z,37.50
2018-05-12T16:43:28.322Z,37.50
2018-05-12T16:45:54.511Z,37.60
2018-05-12T16:48:20.710Z,37.40
2018-05-12T16:50:46.937Z,37.20
2018-05-12T16:53:13.116Z,37.20
2018-05-12T16:55:39.335Z,37.10
2018-05-12T16:58:05.514Z,37.10
2018-05-12T17:00:31.699Z,37.00
2018-05-12T17:02:57.885Z,36.70
2018-05-12T17:05:24.881Z,36.30
2018-05-12T17:07:51.046Z,36.30
2018-05-12T17:10:17.210Z,36.10
2018-05-12T17:12:44.414Z,35.80
2018-05-12T17:15:10.613Z,35.70
2018-05-12T17:17:36.790Z,35.60
2018-05-12T17:20:03.015Z,35.30
2018-05-12T17:22:29.251Z,35.10
2018-05-12T17:24:55.453Z,34.90
2018-05-12T17:27:21.632Z,34.70
2018-05-12T17:29:47.886Z,34.60
2018-05-12T17:32:14.102Z,33.80
2018-05-12T17:34:40.215Z,34.40
2018-05-12T17:37:06.405Z,34.30
2018-05-12T17:39:32.647Z,34.20
2018-05-12T17:41:58.796Z,34.10
2018-05-12T17:44:25.501Z,34.10
2018-05-12T17:46:51.695Z,34.00
2018-05-12T17:49:18.662Z,33.60
2018-05-12T17:51:44.863Z,33.60
2018-05-12T17:54:11.042Z,33.50
2018-05-12T17:56:37.244Z,33.20
2018-05-12T17:59:03.478Z,31.50
2018-05-12T18:01:29.655Z,33.00
2018-05-12T18:03:56.650Z,32.80
2018-05-12T18:06:22.970Z,32.80
2018-05-12T18:08:49.131Z,32.70
2018-05-12T18:11:15.315Z,32.40
2018-05-12T18:13:41.498Z,32.40
2018-05-12T18:16:07.666Z,32.40
2018-05-12T18:18:34.611Z,32.10
2018-05-12T18:21:00.862Z,32.10
2018-05-12T18:23:27.011Z,32.30
2018-05-12T18:25:53.237Z,32.00
2018-05-12T18:28:19.380Z,31.90
2018-05-12T18:30:45.586Z,31.90
2018-05-12T18:33:11.807Z,31.90
2018-05-12T18:35:37.993Z,31.80
2018-05-12T18:38:04.172Z,31.70
2018-05-12T18:40:30.395Z,31.60
2018-05-12T18:42:56.556Z,31.60
2018-05-12T18:45:22.680Z,31.60
2018-05-12T18:47:48.832Z,31.40
2018-05-12T18:50:15.051Z,31.30
2018-05-12T18:52:41.195Z,31.10
2018-05-12T18:55:08.067Z,30.90
2018-05-12T18:57:34.199Z,30.90
2018-05-12T19:00:00.331Z,30.90
2018-05-12T19:02:26.464Z,30.80
2018-05-12T19:04:52.607Z,30.70
2018-05-12T19:07:18.741Z,30.70
2018-05-12T19:09:44.912Z,30.60
2018-05-12T19:12:11.040Z,30.40
2018-05-12T19:14:37.194Z,30.20
2018-05-12T19:17:03.355Z,30.00
2018-05-12T19:19:29.491Z,29.90
2018-05-12T19:21:55.683Z,29.80
2018-05-12T19:24:21.808Z,29.70
2018-05-12T19:26:47.951Z,29.70
2018-05-12T19:29:14.078Z,29.60
2018-05-12T19:31:40.251Z,29.50
2018-05-12T19:34:06.384Z,29.40
2018-05-12T19:36:32.536Z,29.30
2018-05-12T19:38:58.717Z,29.10
2018-05-12T19:41:25.651Z,28.90
2018-05-12T19:43:51.793Z,28.90
2018-05-12T19:46:18.678Z,28.80
2018-05-12T19:48:44.838Z,28.80
2018-05-12T19:51:10.987Z,28.70
2018-05-12T19:53:37.127Z,28.70
2018-05-12T19:56:03.258Z,28.60
2018-05-12T19:58:29.395Z,28.50
2018-05-12T20:00:55.582Z,28.50
2018-05-12T20:03:21.764Z,28.60
2018-05-12T20:05:47.898Z,28.40
2018-05-12T20:08:14.032Z,28.40
2018-05-12T20:10:40.940Z,28.30
2018-05-12T20:13:07.093Z,28.30
2018-05-12T20:15:33.355Z,28.20
2018-05-12T20:18:00.226Z,28.10
2018-05-12T20:20:26.382Z,28.10
2018-05-12T20:22:52.506Z,28.10
2018-05-12T20:25:18.650Z,28.00
2018-05-12T20:27:44.795Z,28.00
2018-05-12T20:30:10.955Z,27.90
2018-05-12T20:32:37.138Z,27.80
2018-05-12T20:35:03.275Z,27.80
2018-05-12T20:37:29.439Z,27.70
2018-05-12T20:39:55.616Z,27.70
2018-05-12T20:42:22.486Z,27.50
2018-05-12T20:44:49.351Z,27.50
2018-05-12T20:47:15.490Z,27.50
2018-05-12T20:49:41.684Z,27.40
2018-05-12T20:52:07.823Z,27.40
2018-05-12T20:54:34.026Z,27.40
2018-05-12T20:57:00.178Z,27.30
2018-05-12T20:59:26.316Z,27.30
2018-05-12T21:01:52.480Z,27.20
2018-05-12T21:04:18.616Z,27.20
2018-05-12T21:06:44.786Z,27.20
2018-05-12T21:09:11.653Z,27.10
2018-05-12T21:11:38.530Z,27.10
2018-05-12T21:14:04.670Z,27.10
2018-05-12T21:16:30.794Z,27.10
2018-05-12T21:18:56.920Z,27.10
2018-05-12T21:21:23.048Z,27.10
2018-05-12T21:23:49.275Z,27.10
2018-05-12T21:26:15.301Z,27.00
2018-05-12T21:28:41.423Z,26.90
2018-05-12T21:31:07.573Z,26.90
2018-05-12T21:33:33.733Z,26.90
2018-05-12T21:35:59.932Z,27.00
2018-05-12T21:38:26.077Z,26.80
2018-05-12T21:40:52.213Z,26.80
2018-05-12T21:43:18.351Z,26.80
2018-05-12T21:45:44.484Z,26.80
2018-05-12T21:48:10.620Z,26.50
2018-05-12T21:50:36.778Z,26.60
2018-05-12T21:53:03.266Z,26.60
2018-05-12T21:55:29.425Z,26.50
2018-05-12T21:57:55.550Z,26.40
2018-05-12T22:00:21.699Z,26.40
2018-05-12T22:02:48.582Z,26.30
2018-05-12T22:05:14.727Z,26.20
2018-05-12T22:07:40.866Z,26.40
2018-05-12T22:10:07.003Z,26.20
2018-05-12T22:12:33.205Z,26.10
2018-05-12T22:15:00.078Z,26.00
2018-05-12T22:17:26.230Z,25.90
2018-05-12T22:19:52.385Z,26.00
2018-05-12T22:22:18.510Z,25.90
2018-05-12T22:24:44.658Z,25.80
2018-05-12T22:27:10.836Z,25.80
2018-05-12T22:29:36.985Z,25.70
2018-05-12T22:32:03.138Z,25.70
2018-05-12T22:34:29.261Z,25.60
2018-05-12T22:36:55.395Z,25.70
2018-05-12T22:39:21.522Z,25.60
2018-05-12T22:41:47.638Z,25.60
2018-05-12T22:44:13.759Z,25.50
2018-05-12T22:46:39.880Z,25.70
2018-05-12T22:49:05.996Z,25.50
2018-05-12T22:51:32.148Z,25.50
2018-05-12T22:53:58.257Z,25.70
2018-05-12T22:56:24.366Z,25.50
2018-05-12T22:58:50.488Z,25.50
2018-05-12T23:01:16.653Z,25.40
2018-05-12T23:03:42.823Z,25.60
2018-05-12T23:06:08.998Z,25.60
2018-05-12T23:08:35.194Z,25.50
2018-05-12T23:11:01.349Z,25.50
2018-05-12T23:13:28.260Z,25.30
2018-05-12T23:15:54.434Z,25.20
2018-05-12T23:18:21.335Z,25.20
2018-05-12T23:20:47.511Z,25.20
2018-05-12T23:23:14.393Z,25.10
2018-05-12T23:25:40.534Z,25.00
2018-05-12T23:28:06.725Z,25.10
2018-05-12T23:30:32.904Z,25.00
2018-05-12T23:32:59.034Z,25.00
2018-05-12T23:35:25.180Z,24.80
2018-05-12T23:37:51.314Z,24.90
2018-05-12T23:40:17.495Z,24.90
2018-05-12T23:42:43.658Z,24.80
2018-05-12T23:45:09.848Z,24.80
2018-05-12T23:47:35.998Z,24.80
2018-05-12T23:50:02.159Z,24.80
2018-05-12T23:52:28.330Z,24.70
2018-05-12T23:54:54.462Z,24.70
2018-05-12T23:57:20.619Z,24.60
2018-05-12T23:59:47.493Z,24.50
